Portada
METAR-TAF:

METAR-TAF

Aeroports :

In Salah, Algèria

latitud: 27-15N, longitud: 002-31E, altitud: 269 m

METAR: manca

Hora: 21:32 (20:32 UTC)

Pronòstic

L'informe es va fer fa 3 hores i 32 minuts, a les 17:00 UTC
Pronòstic vàlid del 18 a les 18 UTC al 19 a les 18 UTC
Vent 8 kt del Sud-Oest
Visibilitat 10 km o més
sense núvols per sota de 1500 mi sense presència de cumulonimbus.
Probabilitat 30% :
Temporalment
l' 19 a les 10 UTC al 19 a les 16 UTC
Vent 22 kt del Oest/Sud-Oest
Visibilitat: 5000 m
torb baixa de sorra

TAF: DAUI 181700Z 1818/1918 22008KT CAVOK PROB30 TEMPO 1910/1916 25022KT 5000 DRSA

Observacions i pronòstics meteorològics de més de 4000 aeroports (METAR i TAF).

Les estacions disponibles són els punts grocs i vermells al mapa.

Posi el ratolí al punt desitjat per veure el nom de l'estació.

Feu clic per veure les observacions i els pronòstics meteorològics.

Per canviar el mapa: feu clic els botons verds amb una creu de color negre per apropar; al botó verd amb un guió per allunyar la imatge; o en les fletxes verdes per a mapes adjacents.


METAR-TAF: